createdAt,value
2018-04-29T00:00:12.355Z,97302.66
2018-04-29T00:00:43.951Z,97307.47
2018-04-29T00:01:15.562Z,97307.97
2018-04-29T00:01:47.181Z,97307.19
2018-04-29T00:02:18.769Z,97312.36
2018-04-29T00:02:50.360Z,97306.50
2018-04-29T00:03:21.942Z,97308.25
2018-04-29T00:03:53.547Z,97304.03
2018-04-29T00:04:25.130Z,97307.08
2018-04-29T00:04:56.708Z,97303.22
2018-04-29T00:05:28.310Z,97307.43
2018-04-29T00:05:59.918Z,97307.41
2018-04-29T00:06:31.502Z,97304.02
2018-04-29T00:07:03.081Z,97303.59
2018-04-29T00:07:34.708Z,97304.52
2018-04-29T00:08:06.323Z,97304.02
2018-04-29T00:08:37.916Z,97301.89
2018-04-29T00:09:09.556Z,97299.31
2018-04-29T00:09:41.151Z,97300.59
2018-04-29T00:10:12.766Z,97303.16
2018-04-29T00:10:44.357Z,97297.55
2018-04-29T00:11:15.966Z,97306.92
2018-04-29T00:11:47.560Z,97302.71
2018-04-29T00:12:19.146Z,97298.88
2018-04-29T00:12:50.802Z,97299.76
2018-04-29T00:13:22.380Z,97295.04
2018-04-29T00:13:53.962Z,97295.83
2018-04-29T00:14:25.539Z,97300.47
2018-04-29T00:14:57.116Z,97295.73
2018-04-29T00:15:28.702Z,97301.27
2018-04-29T00:16:00.314Z,97290.72
2018-04-29T00:16:31.902Z,97297.91
2018-04-29T00:17:03.475Z,97290.67
2018-04-29T00:17:35.053Z,97288.56
2018-04-29T00:18:06.717Z,97291.55
2018-04-29T00:18:38.329Z,97294.97
2018-04-29T00:19:09.904Z,97289.95
2018-04-29T00:19:41.521Z,97294.63
2018-04-29T00:20:13.106Z,97291.62
2018-04-29T00:20:44.676Z,97289.95
2018-04-29T00:21:16.262Z,97283.14
2018-04-29T00:21:47.860Z,97290.44
2018-04-29T00:22:19.450Z,97288.67
2018-04-29T00:22:51.030Z,97291.64
2018-04-29T00:23:22.657Z,97282.67
2018-04-29T00:23:54.235Z,97283.95
2018-04-29T00:24:25.804Z,97283.53
2018-04-29T00:24:57.418Z,97287.73
2018-04-29T00:25:29.016Z,97282.16
2018-04-29T00:26:00.593Z,97279.20
2018-04-29T00:26:32.188Z,97276.70
2018-04-29T00:27:03.798Z,97277.05
2018-04-29T00:27:35.394Z,97277.05
2018-04-29T00:28:06.997Z,97281.30
2018-04-29T00:28:38.628Z,97280.45
2018-04-29T00:29:10.229Z,97282.95
2018-04-29T00:29:41.810Z,97279.95
2018-04-29T00:30:13.444Z,97282.16
2018-04-29T00:30:45.021Z,97280.45
2018-04-29T00:31:16.601Z,97285.58
2018-04-29T00:31:48.182Z,97285.59
2018-04-29T00:32:19.781Z,97280.54
2018-04-29T00:32:51.403Z,97286.95
2018-04-29T00:33:22.973Z,97282.28
2018-04-29T00:33:54.615Z,97280.14
2018-04-29T00:34:26.212Z,97274.61
2018-04-29T00:34:57.798Z,97281.77
2018-04-29T00:35:29.385Z,97280.98
2018-04-29T00:36:00.964Z,97280.59
2018-04-29T00:36:32.540Z,97281.34
2018-04-29T00:37:04.105Z,97280.03
2018-04-29T00:37:35.694Z,97277.03
2018-04-29T00:38:07.298Z,97279.63
2018-04-29T00:38:38.887Z,97278.00
2018-04-29T00:39:10.538Z,97280.56
2018-04-29T00:39:42.146Z,97276.21
2018-04-29T00:40:13.734Z,97275.79
2018-04-29T00:40:45.314Z,97271.12
2018-04-29T00:41:16.892Z,97272.47
2018-04-29T00:41:48.490Z,97276.77
2018-04-29T00:42:20.105Z,97274.61
2018-04-29T00:42:51.688Z,97278.02
2018-04-29T00:43:23.265Z,97275.02
2018-04-29T00:43:54.846Z,97269.03
2018-04-29T00:44:26.517Z,97274.14
2018-04-29T00:44:58.133Z,97272.06
2018-04-29T00:45:29.744Z,97278.00
2018-04-29T00:46:01.349Z,97265.23
2018-04-29T00:46:32.958Z,97266.95
2018-04-29T00:47:04.561Z,97267.86
2018-04-29T00:47:36.170Z,97267.00
2018-04-29T00:48:07.762Z,97263.98
2018-04-29T00:48:39.340Z,97262.33
2018-04-29T00:49:10.941Z,97254.75
2018-04-29T00:49:42.568Z,97254.26
2018-04-29T00:50:14.160Z,97259.01
2018-04-29T00:50:45.737Z,97250.84
2018-04-29T00:51:17.337Z,97254.23
2018-04-29T00:51:48.953Z,97258.94
2018-04-29T00:52:20.552Z,97257.22
2018-04-29T00:52:52.143Z,97253.38
2018-04-29T00:53:23.754Z,97254.14
2018-04-29T00:53:55.370Z,97254.98
2018-04-29T00:54:26.960Z,97250.75
2018-04-29T00:54:58.627Z,97251.61
2018-04-29T00:55:30.246Z,97246.55
2018-04-29T00:56:01.829Z,97252.10
2018-04-29T00:56:33.428Z,97253.81
2018-04-29T00:57:05.029Z,97247.52
2018-04-29T00:57:36.644Z,97258.19
2018-04-29T00:58:08.259Z,97260.72
2018-04-29T00:58:39.832Z,97249.64
2018-04-29T00:59:11.406Z,97250.42
2018-04-29T00:59:42.985Z,97257.64
2018-04-29T01:00:14.646Z,97247.77
2018-04-29T01:00:46.251Z,97252.10
2018-04-29T01:01:17.841Z,97260.28
2018-04-29T01:01:49.430Z,97236.72
2018-04-29T01:02:21.020Z,97256.45
2018-04-29T01:02:52.620Z,97255.20
2018-04-29T01:03:24.197Z,97256.40
2018-04-29T01:03:55.772Z,97257.26
2018-04-29T01:04:27.374Z,97262.79
2018-04-29T01:04:58.986Z,97259.48
2018-04-29T01:05:30.661Z,97260.33
2018-04-29T01:06:02.342Z,97260.34
2018-04-29T01:06:33.910Z,97259.91
2018-04-29T01:07:05.493Z,97266.30
2018-04-29T01:07:37.089Z,97263.30
2018-04-29T01:08:08.702Z,97264.50
2018-04-29T01:08:40.309Z,97264.06
2018-04-29T01:09:11.918Z,97262.86
2018-04-29T01:09:43.495Z,97265.40
2018-04-29T01:10:15.099Z,97264.14
2018-04-29T01:10:46.738Z,97262.42
2018-04-29T01:11:18.321Z,97257.73
2018-04-29T01:11:49.935Z,97264.05
2018-04-29T01:12:21.558Z,97259.35
2018-04-29T01:12:53.142Z,97259.01
2018-04-29T01:13:24.747Z,97253.89
2018-04-29T01:13:56.334Z,97261.09
2018-04-29T01:14:27.941Z,97257.33
2018-04-29T01:14:59.535Z,97257.31
2018-04-29T01:15:31.113Z,97258.05
2018-04-29T01:16:02.793Z,97250.73
2018-04-29T01:16:34.397Z,97256.70
2018-04-29T01:17:06.000Z,97254.97
2018-04-29T01:17:37.586Z,97255.36
2018-04-29T01:18:09.175Z,97250.75
2018-04-29T01:18:40.756Z,97252.42
2018-04-29T01:19:12.357Z,97247.75
2018-04-29T01:19:43.952Z,97246.48
2018-04-29T01:20:15.537Z,97250.66
2018-04-29T01:20:47.137Z,97250.71
2018-04-29T01:21:18.908Z,97247.34
2018-04-29T01:21:50.509Z,97247.31
2018-04-29T01:22:22.094Z,97247.34
2018-04-29T01:22:53.702Z,97245.70
2018-04-29T01:23:25.314Z,97247.87
2018-04-29T01:23:56.902Z,97247.75
2018-04-29T01:24:28.482Z,97245.22
2018-04-29T01:25:00.086Z,97237.55
2018-04-29T01:25:31.697Z,97246.12
2018-04-29T01:26:03.305Z,97246.55
2018-04-29T01:26:34.986Z,97251.59
2018-04-29T01:27:06.574Z,97252.03
2018-04-29T01:27:38.158Z,97257.20
2018-04-29T01:28:09.773Z,97258.86
2018-04-29T01:28:41.377Z,97260.13
2018-04-29T01:29:12.981Z,97252.96
2018-04-29T01:29:44.650Z,97256.30
2018-04-29T01:30:16.228Z,97259.75
2018-04-29T01:30:47.808Z,97264.05
2018-04-29T01:31:19.389Z,97267.45
2018-04-29T01:31:51.016Z,97264.91
2018-04-29T01:32:22.608Z,97262.31
2018-04-29T01:32:54.213Z,97263.61
2018-04-29T01:33:25.787Z,97262.00
2018-04-29T01:33:57.390Z,97264.56
2018-04-29T01:34:28.997Z,97259.05
2018-04-29T01:35:00.568Z,97260.28
2018-04-29T01:35:32.160Z,97264.06
2018-04-29T01:36:03.778Z,97264.12
2018-04-29T01:36:35.366Z,97260.66
2018-04-29T01:37:06.994Z,97261.09
2018-04-29T01:37:38.597Z,97258.09
2018-04-29T01:38:10.207Z,97257.23
2018-04-29T01:38:41.818Z,97259.38
2018-04-29T01:39:13.392Z,97256.81
2018-04-29T01:39:44.978Z,97254.67
2018-04-29T01:40:16.591Z,97255.95
2018-04-29T01:40:48.206Z,97258.53
2018-04-29T01:41:19.788Z,97252.61
2018-04-29T01:41:51.384Z,97253.05
2018-04-29T01:42:23.016Z,97252.61
2018-04-29T01:42:54.606Z,97255.98
2018-04-29T01:43:26.189Z,97256.38
2018-04-29T01:43:57.784Z,97263.63
2018-04-29T01:44:29.389Z,97255.87
2018-04-29T01:45:00.964Z,97257.58
2018-04-29T01:45:32.536Z,97257.20
2018-04-29T01:46:04.121Z,97252.94
2018-04-29T01:46:35.704Z,97252.52
2018-04-29T01:47:07.290Z,97254.59
2018-04-29T01:47:38.936Z,97253.75
2018-04-29T01:48:10.518Z,97249.03
2018-04-29T01:48:42.088Z,97246.91
2018-04-29T01:49:13.674Z,97246.08
2018-04-29T01:49:45.258Z,97246.97
2018-04-29T01:50:16.837Z,97251.17
2018-04-29T01:50:48.425Z,97250.73
2018-04-29T01:51:20.035Z,97248.61
2018-04-29T01:51:51.608Z,97249.80
2018-04-29T01:52:23.211Z,97247.22
2018-04-29T01:52:54.886Z,97251.94
2018-04-29T01:53:26.474Z,97247.30
2018-04-29T01:53:58.058Z,97253.19
2018-04-29T01:54:29.642Z,97247.30
2018-04-29T01:55:01.244Z,97248.52
2018-04-29T01:55:32.859Z,97250.22
2018-04-29T01:56:04.437Z,97251.15
2018-04-29T01:56:36.008Z,97245.20
2018-04-29T01:57:07.603Z,97243.04
2018-04-29T01:57:39.210Z,97248.16
2018-04-29T01:58:10.794Z,97249.37
2018-04-29T01:58:42.364Z,97248.52
2018-04-29T01:59:13.971Z,97248.90
2018-04-29T01:59:45.568Z,97250.20
2018-04-29T02:00:17.182Z,97256.59
2018-04-29T02:00:48.789Z,97253.59
2018-04-29T02:01:20.393Z,97237.71
2018-04-29T02:01:51.966Z,97246.80
2018-04-29T02:02:23.569Z,97251.48
2018-04-29T02:02:55.155Z,97254.44
2018-04-29T02:03:26.814Z,97247.64
2018-04-29T02:03:58.402Z,97255.24
2018-04-29T02:04:30.010Z,97253.06
2018-04-29T02:05:01.606Z,97247.97
2018-04-29T02:05:33.198Z,97253.42
2018-04-29T02:06:04.894Z,97253.42
2018-04-29T02:06:36.496Z,97245.81
2018-04-29T02:07:08.082Z,97248.72
2018-04-29T02:07:39.698Z,97254.61
2018-04-29T02:08:11.273Z,97251.62
2018-04-29T02:08:42.938Z,97243.92
2018-04-29T02:09:14.545Z,97252.00
2018-04-29T02:09:46.154Z,97250.63
2018-04-29T02:10:17.752Z,97251.80
2018-04-29T02:10:49.358Z,97249.25
2018-04-29T02:11:20.971Z,97253.48
2018-04-29T02:11:52.578Z,97251.72
2018-04-29T02:12:24.165Z,97249.67
2018-04-29T02:12:55.765Z,97248.83
2018-04-29T02:13:27.357Z,97249.17
2018-04-29T02:13:58.981Z,97248.30
2018-04-29T02:14:30.559Z,97250.00
2018-04-29T02:15:02.162Z,97246.18
2018-04-29T02:15:33.751Z,97250.03
2018-04-29T02:16:05.354Z,97249.11
2018-04-29T02:16:36.943Z,97248.73
2018-04-29T02:17:08.550Z,97246.62
2018-04-29T02:17:40.151Z,97251.69
2018-04-29T02:18:11.736Z,97250.00
2018-04-29T02:18:43.327Z,97249.58
2018-04-29T02:19:14.972Z,97255.95
2018-04-29T02:19:46.558Z,97245.22
2018-04-29T02:20:18.128Z,97250.39
2018-04-29T02:20:49.729Z,97241.78
2018-04-29T02:21:21.320Z,97246.83
2018-04-29T02:21:52.911Z,97245.55
2018-04-29T02:22:24.523Z,97244.77
2018-04-29T02:22:56.124Z,97240.44
2018-04-29T02:23:27.714Z,97227.53
2018-04-29T02:23:59.312Z,97239.97
2018-04-29T02:24:30.968Z,97246.27
2018-04-29T02:25:02.564Z,97237.41
2018-04-29T02:25:34.150Z,97238.25
2018-04-29T02:26:05.729Z,97238.62
2018-04-29T02:26:37.334Z,97236.06
2018-04-29T02:27:08.946Z,97242.02
2018-04-29T02:27:40.553Z,97236.04
2018-04-29T02:28:12.142Z,97238.17
2018-04-29T02:28:43.726Z,97242.02
2018-04-29T02:29:15.301Z,97238.14
2018-04-29T02:29:46.964Z,97232.63
2018-04-29T02:30:18.576Z,97240.64
2018-04-29T02:30:50.190Z,97241.48
2018-04-29T02:31:21.803Z,97241.87
2018-04-29T02:31:53.404Z,97239.80
2018-04-29T02:32:24.988Z,97246.20
2018-04-29T02:32:56.570Z,97248.30
2018-04-29T02:33:28.166Z,97240.22
2018-04-29T02:33:59.736Z,97244.06
2018-04-29T02:34:31.331Z,97244.92
2018-04-29T02:35:02.974Z,97245.39
2018-04-29T02:35:34.582Z,97249.59
2018-04-29T02:36:06.188Z,97248.72
2018-04-29T02:36:37.778Z,97245.75
2018-04-29T02:37:09.386Z,97247.89
2018-04-29T02:37:40.997Z,97254.71
2018-04-29T02:38:12.614Z,97252.74
2018-04-29T02:38:44.201Z,97250.97
2018-04-29T02:39:15.810Z,97247.53
2018-04-29T02:39:47.423Z,97254.77
2018-04-29T02:40:19.066Z,97259.41
2018-04-29T02:40:50.670Z,97251.31
2018-04-29T02:41:22.279Z,97251.78
2018-04-29T02:41:53.900Z,97251.31
2018-04-29T02:42:25.514Z,97251.30
2018-04-29T02:42:57.128Z,97250.95
2018-04-29T02:43:28.733Z,97250.03
2018-04-29T02:44:00.348Z,97246.20
2018-04-29T02:44:31.949Z,97245.83
2018-04-29T02:45:03.529Z,97247.13
2018-04-29T02:45:35.188Z,97248.39
2018-04-29T02:46:06.858Z,97250.09
2018-04-29T02:46:38.465Z,97249.69
2018-04-29T02:47:10.064Z,97252.64
2018-04-29T02:47:41.651Z,97241.17
2018-04-29T02:48:13.233Z,97246.71
2018-04-29T02:48:44.850Z,97250.95
2018-04-29T02:49:16.441Z,97251.05
2018-04-29T02:49:48.030Z,97251.85
2018-04-29T02:50:19.609Z,97251.39
2018-04-29T02:50:51.257Z,97251.37
2018-04-29T02:51:22.850Z,97247.95
2018-04-29T02:51:54.460Z,97253.31
2018-04-29T02:52:26.054Z,97251.62
2018-04-29T02:52:57.651Z,97252.97
2018-04-29T02:53:29.274Z,97252.97
2018-04-29T02:54:00.877Z,97250.83
2018-04-29T02:54:32.491Z,97252.57
2018-04-29T02:55:04.082Z,97252.55
2018-04-29T02:55:35.661Z,97248.75
2018-04-29T02:56:07.288Z,97252.53
2018-04-29T02:56:38.870Z,97253.43
2018-04-29T02:57:10.454Z,97252.57
2018-04-29T02:57:42.030Z,97258.51
2018-04-29T02:58:13.639Z,97255.11
2018-04-29T02:58:45.226Z,97249.99
2018-04-29T02:59:16.814Z,97255.16
2018-04-29T02:59:48.422Z,97255.09
2018-04-29T03:00:20.014Z,97253.83
2018-04-29T03:00:51.627Z,97251.20
2018-04-29T03:01:23.262Z,97258.41
2018-04-29T03:01:54.924Z,97254.16
2018-04-29T03:02:26.457Z,97251.59
2018-04-29T03:02:58.062Z,97251.20
2018-04-29T03:03:29.650Z,97246.08
2018-04-29T03:04:01.258Z,97249.03
2018-04-29T03:04:32.842Z,97249.80
2018-04-29T03:05:04.451Z,97245.59
2018-04-29T03:05:36.042Z,97246.94
2018-04-29T03:06:07.636Z,97248.22
2018-04-29T03:06:39.264Z,97246.92
2018-04-29T03:07:10.849Z,97247.32
2018-04-29T03:07:42.462Z,97249.87
2018-04-29T03:08:14.064Z,97246.06
2018-04-29T03:08:45.733Z,97242.72
2018-04-29T03:09:17.341Z,97246.94
2018-04-29T03:09:48.954Z,97243.20
2018-04-29T03:10:20.558Z,97248.72
2018-04-29T03:10:52.169Z,97245.30
2018-04-29T03:11:23.758Z,97249.16
2018-04-29T03:11:55.385Z,97248.31
2018-04-29T03:12:26.989Z,97253.43
2018-04-29T03:12:58.574Z,97257.69
2018-04-29T03:13:30.144Z,97253.43
2018-04-29T03:14:01.722Z,97256.06
2018-04-29T03:14:33.328Z,97259.48
2018-04-29T03:15:04.925Z,97250.55
2018-04-29T03:15:36.534Z,97254.83
2018-04-29T03:16:08.109Z,97255.20
2018-04-29T03:16:39.700Z,97257.37
2018-04-29T03:17:11.365Z,97251.41
2018-04-29T03:17:42.959Z,97250.64
2018-04-29T03:18:14.533Z,97257.39
2018-04-29T03:18:46.223Z,97247.66
2018-04-29T03:19:17.810Z,97250.13
2018-04-29T03:19:49.393Z,97251.85
2018-04-29T03:20:20.978Z,97247.23
2018-04-29T03:20:52.562Z,97255.66
2018-04-29T03:21:24.158Z,97253.95
2018-04-29T03:21:55.769Z,97253.60
2018-04-29T03:22:27.428Z,97247.58
2018-04-29T03:22:59.029Z,97253.09
2018-04-29T03:23:30.618Z,97255.25
2018-04-29T03:24:02.197Z,97251.05
2018-04-29T03:24:33.801Z,97259.58
2018-04-29T03:25:05.385Z,97253.11
2018-04-29T03:25:36.969Z,97255.30
2018-04-29T03:26:08.557Z,97253.09
2018-04-29T03:26:40.148Z,97250.53
2018-04-29T03:27:11.753Z,97252.67
2018-04-29T03:27:43.425Z,97248.44
2018-04-29T03:28:15.038Z,97252.27
2018-04-29T03:28:46.619Z,97259.06
2018-04-29T03:29:18.201Z,97251.39
2018-04-29T03:29:49.780Z,97253.02
2018-04-29T03:30:21.382Z,97246.25
2018-04-29T03:30:52.957Z,97250.13
2018-04-29T03:31:24.566Z,97248.02
2018-04-29T03:31:56.177Z,97251.41
2018-04-29T03:32:27.763Z,97249.77
2018-04-29T03:32:59.436Z,97250.98
2018-04-29T03:33:31.013Z,97247.55
2018-04-29T03:34:02.603Z,97246.71
2018-04-29T03:34:34.198Z,97249.27
2018-04-29T03:35:05.768Z,97242.89
2018-04-29T03:35:37.354Z,97247.63
2018-04-29T03:36:08.962Z,97245.44
2018-04-29T03:36:40.572Z,97246.39
2018-04-29T03:37:12.182Z,97241.71
2018-04-29T03:37:43.789Z,97243.41
2018-04-29T03:38:15.430Z,97245.19
2018-04-29T03:38:47.024Z,97248.97
2018-04-29T03:39:18.614Z,97244.33
2018-04-29T03:39:50.194Z,97254.98
2018-04-29T03:40:21.785Z,97245.19
2018-04-29T03:40:53.390Z,97249.86
2018-04-29T03:41:25.000Z,97241.36
2018-04-29T03:41:56.583Z,97241.34
2018-04-29T03:42:28.176Z,97243.95
2018-04-29T03:42:59.768Z,97243.47
2018-04-29T03:43:31.429Z,97239.63
2018-04-29T03:44:03.035Z,97240.48
2018-04-29T03:44:34.636Z,97241.34
2018-04-29T03:45:06.226Z,97242.20
2018-04-29T03:45:37.806Z,97238.37
2018-04-29T03:46:09.400Z,97243.48
2018-04-29T03:46:40.986Z,97244.38
2018-04-29T03:47:12.591Z,97241.02
2018-04-29T03:47:44.209Z,97238.41
2018-04-29T03:48:15.818Z,97239.23
2018-04-29T03:48:47.482Z,97242.53
2018-04-29T03:49:19.059Z,97242.11
2018-04-29T03:49:50.642Z,97236.16
2018-04-29T03:50:22.254Z,97243.47
2018-04-29T03:50:53.869Z,97243.83
2018-04-29T03:51:25.464Z,97245.60
2018-04-29T03:51:57.064Z,97237.92
2018-04-29T03:52:28.658Z,97243.41
2018-04-29T03:53:00.234Z,97244.17
2018-04-29T03:53:31.814Z,97244.99
2018-04-29T03:54:03.417Z,97250.97
2018-04-29T03:54:35.032Z,97243.39
2018-04-29T03:55:06.645Z,97244.69
2018-04-29T03:55:38.224Z,97247.30
2018-04-29T03:56:09.833Z,97242.57
2018-04-29T03:56:41.432Z,97244.69
2018-04-29T03:57:13.041Z,97244.74
2018-04-29T03:57:44.658Z,97249.86
2018-04-29T03:58:16.277Z,97247.84
2018-04-29T03:58:47.932Z,97245.97
2018-04-29T03:59:19.541Z,97245.60
2018-04-29T03:59:51.150Z,97251.39
2018-04-29T04:00:22.753Z,97250.92
2018-04-29T04:00:54.342Z,97256.84
2018-04-29T04:01:25.935Z,97258.51
2018-04-29T04:01:57.526Z,97254.62
2018-04-29T04:02:29.150Z,97253.73
2018-04-29T04:03:00.729Z,97258.85
2018-04-29T04:03:32.313Z,97259.59
2018-04-29T04:04:03.920Z,97258.66
2018-04-29T04:04:35.508Z,97264.69
2018-04-29T04:05:07.100Z,97264.20
2018-04-29T04:05:38.690Z,97265.06
2018-04-29T04:06:10.285Z,97267.17
2018-04-29T04:06:41.902Z,97265.53
2018-04-29T04:07:13.497Z,97268.53
2018-04-29T04:07:45.082Z,97267.27
2018-04-29T04:08:16.660Z,97269.44
2018-04-29T04:08:48.238Z,97270.77
2018-04-29T04:09:19.895Z,97268.64
2018-04-29T04:09:51.597Z,97267.79
2018-04-29T04:10:23.104Z,97271.23
2018-04-29T04:10:54.700Z,97267.88
2018-04-29T04:11:26.290Z,97273.41
2018-04-29T04:11:57.884Z,97268.30
2018-04-29T04:12:29.470Z,97271.73
2018-04-29T04:13:01.058Z,97270.46
2018-04-29T04:13:32.661Z,97266.22
2018-04-29T04:14:04.266Z,97269.20
2018-04-29T04:14:35.896Z,97270.78
2018-04-29T04:15:07.474Z,97263.63
2018-04-29T04:15:39.070Z,97269.02
2018-04-29T04:16:10.665Z,97266.83
2018-04-29T04:16:42.273Z,97271.41
2018-04-29T04:17:13.889Z,97263.73
2018-04-29T04:17:45.460Z,97263.66
2018-04-29T04:18:17.055Z,97262.36
2018-04-29T04:18:48.646Z,97265.34
2018-04-29T04:19:20.225Z,97273.32
2018-04-29T04:19:51.889Z,97266.08
2018-04-29T04:20:23.485Z,97266.10
2018-04-29T04:20:55.090Z,97265.69
2018-04-29T04:21:26.678Z,97263.56
2018-04-29T04:21:58.266Z,97267.38
2018-04-29T04:22:29.856Z,97267.29
2018-04-29T04:23:01.446Z,97267.36
2018-04-29T04:23:33.031Z,97268.62
2018-04-29T04:24:04.638Z,97266.84
2018-04-29T04:24:36.231Z,97268.98
2018-04-29T04:25:07.894Z,97267.80
2018-04-29T04:25:39.473Z,97271.18
2018-04-29T04:26:11.093Z,97253.59
2018-04-29T04:26:42.682Z,97272.92
2018-04-29T04:27:14.266Z,97279.73
2018-04-29T04:27:45.860Z,97278.11
2018-04-29T04:28:17.436Z,97282.30
2018-04-29T04:28:49.018Z,97279.63
2018-04-29T04:29:20.592Z,97278.34
2018-04-29T04:29:52.184Z,97278.23
2018-04-29T04:30:23.820Z,97278.56
2018-04-29T04:30:55.430Z,97275.13
2018-04-29T04:31:27.045Z,97274.84
2018-04-29T04:31:58.640Z,97275.34
2018-04-29T04:32:30.245Z,97279.39
2018-04-29T04:33:01.834Z,97283.30
2018-04-29T04:33:33.418Z,97280.39
2018-04-29T04:34:05.012Z,97281.00
2018-04-29T04:34:36.612Z,97274.63
2018-04-29T04:35:08.206Z,97283.39
2018-04-29T04:35:39.842Z,97282.00
2018-04-29T04:36:11.451Z,97280.58
2018-04-29T04:36:43.057Z,97280.52
2018-04-29T04:37:14.645Z,97283.58
2018-04-29T04:37:46.254Z,97287.81
2018-04-29T04:38:17.856Z,97286.99
2018-04-29T04:38:49.436Z,97289.11
2018-04-29T04:39:21.048Z,97290.83
2018-04-29T04:39:52.638Z,97290.83
2018-04-29T04:40:24.241Z,97286.66
2018-04-29T04:40:55.910Z,97294.23
2018-04-29T04:41:27.498Z,97282.97
2018-04-29T04:41:59.068Z,97291.72
2018-04-29T04:42:30.646Z,97291.81
2018-04-29T04:43:02.250Z,97294.81
2018-04-29T04:43:33.842Z,97290.60
2018-04-29T04:44:05.430Z,97291.02
2018-04-29T04:44:37.014Z,97290.58
2018-04-29T04:45:08.611Z,97290.16
2018-04-29T04:45:40.213Z,97286.67
2018-04-29T04:46:11.824Z,97292.67
2018-04-29T04:46:43.434Z,97287.13
2018-04-29T04:47:15.052Z,97290.93
2018-04-29T04:47:46.647Z,97287.53
2018-04-29T04:48:18.253Z,97290.16
2018-04-29T04:48:49.846Z,97285.48
2018-04-29T04:49:21.431Z,97282.95
2018-04-29T04:49:53.018Z,97290.19
2018-04-29T04:50:24.621Z,97286.69
2018-04-29T04:50:56.257Z,97287.95
2018-04-29T04:51:27.843Z,97288.39
2018-04-29T04:51:59.427Z,97285.83
2018-04-29T04:52:31.019Z,97283.62
2018-04-29T04:53:02.588Z,97283.23
2018-04-29T04:53:34.189Z,97285.41
2018-04-29T04:54:05.799Z,97285.05
2018-04-29T04:54:37.410Z,97286.27
2018-04-29T04:55:08.997Z,97290.51
2018-04-29T04:55:40.622Z,97291.72
2018-04-29T04:56:12.302Z,97289.23
2018-04-29T04:56:43.893Z,97288.79
2018-04-29T04:57:15.499Z,97286.67
2018-04-29T04:57:47.100Z,97289.58
2018-04-29T04:58:18.696Z,97288.37
2018-04-29T04:58:50.292Z,97288.83
2018-04-29T04:59:21.864Z,97285.58
2018-04-29T04:59:53.466Z,97294.53
2018-04-29T05:00:25.073Z,97289.88
2018-04-29T05:00:56.662Z,97288.16
2018-04-29T05:01:28.315Z,97293.19
2018-04-29T05:01:59.887Z,97290.60
2018-04-29T05:02:31.465Z,97291.44
2018-04-29T05:03:03.066Z,97291.86
2018-04-29T05:03:34.658Z,97290.16
2018-04-29T05:04:06.229Z,97290.20
2018-04-29T05:04:37.800Z,97291.06
2018-04-29T05:05:09.411Z,97291.16
2018-04-29T05:05:41.021Z,97288.92
2018-04-29T05:06:12.606Z,97289.44
2018-04-29T05:06:44.270Z,97289.00
2018-04-29T05:07:15.929Z,97289.46
2018-04-29T05:07:47.511Z,97287.81
2018-04-29T05:08:19.121Z,97284.42
2018-04-29T05:08:50.729Z,97280.67
2018-04-29T05:09:22.318Z,97285.30
2018-04-29T05:09:53.908Z,97281.14
2018-04-29T05:10:25.522Z,97285.31
2018-04-29T05:10:57.114Z,97287.09
2018-04-29T05:11:28.730Z,97284.55
2018-04-29T05:12:00.375Z,97284.55
2018-04-29T05:12:31.968Z,97278.59
2018-04-29T05:13:03.559Z,97276.95
2018-04-29T05:13:35.162Z,97280.37
2018-04-29T05:14:06.777Z,97275.72
2018-04-29T05:14:38.385Z,97276.55
2018-04-29T05:15:09.994Z,97274.39
2018-04-29T05:15:41.572Z,97280.79
2018-04-29T05:16:13.168Z,97279.02
2018-04-29T05:16:44.762Z,97277.31
2018-04-29T05:17:16.428Z,97279.45
2018-04-29T05:17:48.017Z,97274.81
2018-04-29T05:18:19.598Z,97274.81
2018-04-29T05:18:51.206Z,97273.99
2018-04-29T05:19:22.779Z,97279.45
2018-04-29T05:19:54.362Z,97280.67
2018-04-29T05:20:25.941Z,97277.72
2018-04-29T05:20:57.529Z,97278.55
2018-04-29T05:21:29.147Z,97277.63
2018-04-29T05:22:00.790Z,97281.00
2018-04-29T05:22:32.462Z,97277.63
2018-04-29T05:23:04.052Z,97283.92
2018-04-29T05:23:35.634Z,97279.74
2018-04-29T05:24:07.262Z,97274.18
2018-04-29T05:24:38.859Z,97278.91
2018-04-29T05:25:10.470Z,97284.44
2018-04-29T05:25:42.054Z,97284.88
2018-04-29T05:26:13.638Z,97278.04
2018-04-29T05:26:45.241Z,97281.90
2018-04-29T05:27:16.853Z,97277.70
2018-04-29T05:27:48.460Z,97276.02
2018-04-29T05:28:20.072Z,97277.28
2018-04-29T05:28:51.678Z,97275.62
2018-04-29T05:29:23.296Z,97275.59
2018-04-29T05:29:54.898Z,97276.88
2018-04-29T05:30:26.502Z,97275.59
2018-04-29T05:30:58.126Z,97275.59
2018-04-29T05:31:29.727Z,97273.55
2018-04-29T05:32:01.333Z,97274.86
2018-04-29T05:32:32.921Z,97273.99
2018-04-29T05:33:04.562Z,97270.59
2018-04-29T05:33:36.165Z,97272.80
2018-04-29T05:34:07.774Z,97270.16
2018-04-29T05:34:39.377Z,97267.90
2018-04-29T05:35:10.965Z,97272.92
2018-04-29T05:35:42.569Z,97267.79
2018-04-29T05:36:14.175Z,97265.23
2018-04-29T05:36:45.764Z,97267.30
2018-04-29T05:37:17.365Z,97265.59
2018-04-29T05:37:48.979Z,97262.61
2018-04-29T05:38:20.616Z,97265.59
2018-04-29T05:38:52.228Z,97266.44
2018-04-29T05:39:23.837Z,97266.44
2018-04-29T05:39:55.436Z,97258.83
2018-04-29T05:40:27.032Z,97261.41
2018-04-29T05:40:58.687Z,97266.13
2018-04-29T05:41:30.273Z,97258.45
2018-04-29T05:42:01.858Z,97258.53
2018-04-29T05:42:33.622Z,97257.67
2018-04-29T05:43:05.234Z,97259.37
2018-04-29T05:43:36.901Z,97258.55
2018-04-29T05:44:08.486Z,97258.45
2018-04-29T05:44:40.066Z,97259.39
2018-04-29T05:45:11.661Z,97250.88
2018-04-29T05:45:43.275Z,97254.29
2018-04-29T05:46:14.885Z,97254.37
2018-04-29T05:46:46.549Z,97252.23
2018-04-29T05:47:18.158Z,97255.64
2018-04-29T05:47:49.758Z,97264.59
2018-04-29T05:48:21.328Z,97254.39
2018-04-29T05:48:52.991Z,97255.20
2018-04-29T05:49:24.604Z,97259.06
2018-04-29T05:49:56.282Z,97262.88
2018-04-29T05:50:27.857Z,97267.14
2018-04-29T05:50:59.494Z,97268.84
2018-04-29T05:51:31.089Z,97262.88
2018-04-29T05:52:02.716Z,97270.11
2018-04-29T05:52:34.386Z,97268.86
2018-04-29T05:53:05.988Z,97267.50
2018-04-29T05:53:37.602Z,97271.76
2018-04-29T05:54:09.254Z,97274.20
2018-04-29T05:54:40.838Z,97270.39
2018-04-29T05:55:12.423Z,97273.80
2018-04-29T05:55:44.006Z,97274.70
2018-04-29T05:56:15.590Z,97278.02
2018-04-29T05:56:47.177Z,97276.36
2018-04-29T05:57:18.757Z,97275.92
2018-04-29T05:57:50.337Z,97277.64
2018-04-29T05:58:21.932Z,97278.53
2018-04-29T05:58:53.551Z,97275.14
2018-04-29T05:59:25.210Z,97275.58
2018-04-29T05:59:56.798Z,97278.14
2018-04-29T06:00:28.462Z,97281.09
2018-04-29T06:00:59.997Z,97279.77
2018-04-29T06:01:31.586Z,97276.41
2018-04-29T06:02:03.162Z,97279.44
2018-04-29T06:02:34.767Z,97281.11
2018-04-29T06:03:06.360Z,97280.27
2018-04-29T06:03:37.968Z,97284.11
2018-04-29T06:04:09.591Z,97283.25
2018-04-29T06:04:41.244Z,97284.53
2018-04-29T06:05:12.816Z,97287.09
2018-04-29T06:05:44.471Z,97285.83
2018-04-29T06:06:16.082Z,97282.00
2018-04-29T06:06:47.785Z,97283.69
2018-04-29T06:07:19.332Z,97285.47
2018-04-29T06:07:50.942Z,97280.81
2018-04-29T06:08:22.530Z,97284.99
2018-04-29T06:08:54.125Z,97282.91
2018-04-29T06:09:25.738Z,97277.73
2018-04-29T06:09:57.376Z,97276.99
2018-04-29T06:10:28.958Z,97282.48
2018-04-29T06:11:00.561Z,97276.13